Etusivu
METAR-TAF:

METAR-TAF

Lentoasemat :

Blue Grass Airport

Lexington, Kentucky, Yhdysvallat

Leveyspiiri: 38-02-27N, Pituuspiiri: 084-36-21W, korkeus merenpinnasta: 298 m

Tämänhetkinen sää

Tämä raportti tehtiin 34 minuuttia sitten, kello 16.54 UTC
Tuuli 9 kn lounaasta
Lämpötila 3°C
Kosteus 41%
Ilmanpaine 1031 hPa
Näkyvyys: 16.1 km
selkeää

METAR: KLEX 221654Z 23009KT 10SM CLR 03/M09 A3044 RMK AO2 SLP318 T00331094

Aika: 12:28 (17:28 UTC)

Sääennuste

Tämä raportti tehtiin 6 tuntia ja 7 minuuttia sitten, kello 11.21 UTC
Ennuste voimassa 22. päivästä klo 12 UTC - 23. päivään klo 12 UTC
Tuuli 5 kn etelästä
Näkyvyys: 10 km
selkeää
From 22. päivästä klo 1400 UTC
Tuuli 10 kn etelästä/lounaasta
Näkyvyys: 10 km
selkeää
From 22. päivästä klo 2300 UTC
Tuuli 6 kn etelästä
Näkyvyys: 10 km
selkeää

TAF: KLEX 221121Z 2212/2312 19005KT P6SM SKC FM221400 21010KT P6SM SKC FM222300 18006KT P6SM SKC

Säähavainnot ja -ennusteet yli 4000 lentoasemalta (METAR- ja TAF-raportit).

Käytössä olevat sääasemat on merkitty karttaan keltaisilla ja punaisilla pisteillä.

Aseta hiiri pisteen päälle nähdäksesi sääaseman nimen.

Klikkaa sitten nähdäksesi säähavainnot ja -ennusteet.

Kartan vaihtaminen: klikkaa mustalla rastilla varustettuja vihreitä pisteitä, niin voit zoomata sisään; viivalla varustettua vihreää pistettä, niin voit zoomata ulos tai vihreitä nuolia, niin pääset viereisille kartoille.


METAR-TAF: